Terminal Aerodrome Forecast
Issued by NWS Charleston, WV

Current Version | Previous Version | Text Only | Print | Product List | Glossary Off
Versions: 1 2 3 4 5 6 7 8 9 10 11 12 13 14 15 16 17 18 19 20 21 22 23 24 25

932
FTUS41 KRLX 211748
TAFHTS
TAF
KHTS 211748Z 2118/2218 28007KT P6SM SHRA OVC035
      TEMPO 2118/2122 4SM SHRA BKN015 OVC025
     FM212200 30007KT P6SM OVC025
     FM220200 32005KT P6SM OVC040
     FM220500 VRB03KT P6SM BKN060
     FM221000 VRB03KT P6SM SCT060
     FM221600 34007KT P6SM BKN060=

USA.gov is the U.S. government's official web portal to all federal, state and local government web resources and services.